Latest Weather Observations for Whyalla

IDS60801

Issued at 3:35 pm CST Sunday 31 August 2014 (issued every 30 minutes, with the page automatically refreshed every 10 minutes)

About weather observations | Map of weather stations | Latest weather observations for SA | Other Formats
Station Details ID: 018120 Name: WHYALLA AERO Lat: -33.05 Lon: 137.52 Height: 6.5 m
Data from the previous 72 hours. | See also: Recent months at Whyalla
Date/Time
CST
Temp
°C
App
Temp
°C
Dew
Point
Rel
Hum
%
Delta-T
°C
Wind Press
QNH
hPa
Press
MSL
hPa
Rain
since 9 am
mm
Dir
 
Spd
km/h
Gust
km/h
Spd
kts
Gust
kts
31/03:30pm 27.6 18.4 -1.3 15 13.3 NNW 37 48 20 26 1009.6 1009.6 0.0
31/03:00pm 27.2 18.7 -1.7 15 13.1 NNW 33 46 18 25 1009.9 1009.9 0.0
31/02:30pm 26.4 18.1 -1.4 16 12.6 NNW 32 44 17 24 1010.7 1010.7 0.0
31/02:00pm 26.4 18.3 -0.6 17 12.4 N 32 52 17 28 1010.9 1010.9 0.0
31/01:57pm 26.0 17.8 -0.9 17 12.3 NNW 32 52 17 28 1011.0 1011.0 0.0
31/01:30pm 26.0 17.2 -0.9 17 12.3 N 35 46 19 25 1011.3 1011.3 0.0
31/01:00pm 26.1 17.9 -0.8 17 12.3 N 32 44 17 24 1012.2 1012.2 0.0
31/12:30pm 25.6 16.5 -0.5 18 12.0 N 37 52 20 28 1012.8 1012.8 0.0
31/12:00pm 24.7 15.9 -1.2 18 11.6 N 35 50 19 27 1013.5 1013.5 0.0
31/11:30am 23.8 14.6 -1.2 19 11.1 N 37 54 20 29 1014.1 1014.1 0.0
31/11:00am 23.5 15.1 -0.7 20 10.9 N 33 44 18 24 1014.3 1014.3 0.0
31/10:50am 24.6 16.5 -0.5 19 11.4 N 32 50 17 27 1014.6 1014.6 0.0
31/10:30am 24.3 15.7 -0.1 20 11.1 N 35 46 19 25 1014.8 1014.8 0.0
31/10:00am 22.8 15.0 -0.6 21 10.5 NNW 30 43 16 23 1015.3 1015.3 0.0
31/09:30am 21.3 13.5 -0.6 23 9.6 N 30 39 16 21 1016.0 1016.0 0.0
31/09:00am 18.0 12.0 -1.3 27 8.1 N 20 26 11 14 1016.4 1016.4 0.0
31/08:30am 15.4 10.3 -1.6 31 6.9 N 15 20 8 11 1016.5 1016.5 0.0
31/08:00am 14.4 9.7 -1.6 33 6.5 NNW 13 17 7 9 1016.6 1016.6 0.0
31/07:30am 13.8 8.7 -1.8 34 6.2 N 15 20 8 11 1016.0 1016.0 0.0
31/07:00am 8.9 4.5 -2.7 44 4.3 NNW 11 15 6 8 1016.0 1016.0 0.0
31/06:30am 12.3 7.8 -3.1 34 5.9 NW 11 13 6 7 1015.6 1015.6 0.0
31/06:00am 14.8 8.7 -2.6 30 6.9 N 20 30 11 16 1015.0 1015.0 0.0
31/05:30am 10.9 5.8 -1.8 41 4.9 NNW 15 19 8 10 1014.7 1014.7 0.0
31/05:00am 9.7 4.9 -2.6 42 4.6 NW 13 15 7 8 1014.8 1014.8 0.0
31/04:30am 10.7 5.1 -2.7 39 5.1 WNW 17 19 9 10 1014.6 1014.6 0.0
31/04:22am 11.4 6.2 -2.8 37 5.4 WNW 15 17 8 9 1014.7 1014.7 0.0
31/04:00am 16.5 10.4 -2.5 27 7.7 N 20 26 11 14 1014.6 1014.6 0.0
31/03:30am 15.4 10.7 -1.6 31 7.0 N 13 19 7 10 1014.7 1014.7 0.0
31/03:00am 11.6 6.5 -2.2 38 5.3 N 15 19 8 10 1015.3 1015.3 0.0
31/02:30am 8.3 3.9 -2.6 46 4.0 NW 11 15 6 8 1015.7 1015.7 0.0
31/02:00am 9.3 3.7 -2.6 43 4.5 WNW 17 19 9 10 1016.1 1016.1 0.0
31/01:30am 9.4 4.3 -2.2 44 4.4 NW 15 17 8 9 1016.2 1016.2 0.0
31/01:14am 11.2 6.3 -3.3 36 5.5 WNW 13 17 7 9 1016.3 1016.3 0.0
31/01:00am 16.4 10.3 -2.6 27 7.7 N 20 26 11 14 1016.3 1016.3 0.0
31/12:30am 16.8 10.9 -2.3 27 7.8 N 19 24 10 13 1016.6 1016.6 0.0
31/12:00am 14.7 9.7 -1.4 33 6.6 N 15 19 8 10 1017.0 1017.0 0.0
 
Date/Time
CST
Temp
°C
App
Temp
°C
Dew
Point
Rel
Hum
%
Delta-T
°C
Wind Press
QNH
hPa
Press
MSL
hPa
Rain
since 9 am
mm
Dir
 
Spd
km/h
Gust
km/h
Spd
kts
Gust
kts
30/11:30pm 11.3 6.6 -2.1 39 5.2 NNW 13 13 7 7 1017.4 1017.4 0.0
30/11:00pm 10.2 5.5 -2.1 42 4.7 NNW 13 15 7 8 1017.6 1017.6 0.0
30/10:30pm 12.5 8.4 -2.9 34 5.9 N 9 13 5 7 1017.7 1017.7 0.0
30/10:00pm 17.0 12.3 -2.1 27 7.9 N 13 17 7 9 1018.0 1018.0 0.0
30/09:30pm 15.0 10.2 -2.4 30 7.0 N 13 17 7 9 1018.2 1018.2 0.0
30/09:00pm 15.5 11.9 -2.0 30 7.1 N 7 13 4 7 1018.3 1018.3 0.0
30/08:30pm 14.8 10.1 -1.7 32 6.7 NNW 13 17 7 9 1018.3 1018.3 0.0
30/08:00pm 15.8 11.5 -1.7 30 7.2 NNW 11 13 6 7 1018.1 1018.1 0.0
30/07:30pm 20.0 15.6 -2.3 22 9.4 NNE 11 13 6 7 1018.1 1018.1 0.0
30/07:00pm 20.9 16.1 -2.2 21 9.8 N 13 17 7 9 1017.9 1017.9 0.0
30/06:30pm 21.5 16.3 -2.4 20 10.2 N 15 19 8 10 1018.0 1018.0 0.0
30/06:00pm 22.3 17.1 -2.4 19 10.6 N 15 20 8 11 1017.8 1017.8 0.0
30/05:30pm 23.7 17.5 -2.8 17 11.4 N 20 26 11 14 1017.7 1017.7 0.0
30/05:00pm 24.2 18.1 -2.4 17 11.6 N 20 30 11 16 1017.6 1017.6 0.0
30/04:30pm 24.7 17.8 -2.8 16 11.9 N 24 33 13 18 1017.6 1017.6 0.0
30/04:00pm 25.7 18.5 -2.0 16 12.3 NNW 26 33 14 18 1017.7 1017.7 0.0
30/03:30pm 25.9 18.8 -1.0 17 12.2 NNW 26 35 14 19 1018.0 1018.0 0.0
30/03:00pm 26.1 18.6 -1.7 16 12.5 N 28 35 15 19 1018.2 1018.2 0.0
30/02:30pm 25.7 18.1 -2.0 16 12.3 NNW 28 39 15 21 1018.5 1018.5 0.0
30/02:00pm 25.9 18.3 -1.8 16 12.4 N 28 39 15 21 1018.8 1018.8 0.0
30/01:30pm 26.0 19.1 -0.1 18 12.0 N 26 37 14 20 1019.2 1019.2 0.0
30/01:00pm 24.8 16.6 -1.1 18 11.7 N 32 43 17 23 1020.1 1020.1 0.0
30/12:30pm 25.3 17.1 -0.7 18 11.8 N 32 48 17 26 1020.5 1020.5 0.0
30/12:00pm 24.8 17.0 -1.1 18 11.6 N 30 39 16 21 1021.1 1021.1 0.0
30/11:30am 24.5 16.8 0.1 20 11.2 N 30 44 16 24 1021.7 1021.7 0.0
30/11:00am 24.1 17.6 0.4 21 10.9 N 24 32 13 17 1022.1 1022.1 0.0
30/10:30am 23.7 17.3 0.7 22 10.6 N 24 35 13 19 1022.5 1022.5 0.0
30/10:00am 22.5 17.0 0.4 23 10.0 N 19 24 10 13 1022.8 1022.8 0.0
30/09:30am 19.7 16.3 2.1 31 8.0 NNW 9 13 5 7 1023.0 1023.0 0.0
30/09:00am 16.8 14.7 2.0 37 6.6 N 2 9 1 5 1023.4 1023.4 0.0
30/08:30am 14.5 11.5 1.8 42 5.5 NW 7 11 4 6 1023.6 1023.6 0.0
30/08:00am 11.6 8.6 1.8 51 4.2 NW 7 7 4 4 1023.4 1023.4 0.0
30/07:30am 8.3 5.3 1.9 64 2.6 NW 7 9 4 5 1023.2 1023.2 0.0
30/07:00am 7.3 3.3 0.7 63 2.6 N 11 11 6 6 1023.1 1023.1 0.0
30/06:30am 6.6 3.0 0.5 65 2.4 N 9 11 5 6 1023.0 1023.0 0.0
30/06:00am 7.6 3.3 1.2 64 2.6 NNW 13 17 7 9 1022.8 1022.8 0.0
30/05:30am 6.9 2.6 1.0 66 2.3 NNW 13 15 7 8 1022.8 1022.8 0.0
30/05:00am 5.9 1.9 0.7 69 2.0 N 11 13 6 7 1022.7 1022.7 0.0
30/04:30am 6.2 2.6 0.5 67 2.2 NW 9 11 5 6 1022.7 1022.7 0.0
30/04:00am 7.2 3.7 1.1 65 2.4 NW 9 11 5 6 1022.7 1022.7 0.0
30/03:30am 7.8 4.3 1.4 64 2.6 NW 9 13 5 7 1022.7 1022.7 0.0
30/03:00am 8.1 4.3 1.7 64 2.6 NW 11 15 6 8 1022.8 1022.8 0.0
30/02:30am 8.4 5.1 2.4 66 2.5 NNW 9 13 5 7 1023.0 1023.0 0.0
30/02:00am 8.3 4.6 2.3 66 2.5 NNW 11 13 6 7 1023.1 1023.1 0.0
30/01:30am 8.0 4.0 2.7 69 2.2 NNW 13 15 7 8 1023.4 1023.4 0.0
30/01:00am 8.1 4.4 2.6 68 2.3 NNW 11 13 6 7 1023.6 1023.6 0.0
30/12:30am 8.4 4.3 2.4 66 2.5 NW 13 15 7 8 1023.6 1023.6 0.0
30/12:00am 8.5 4.9 2.7 67 2.4 NW 11 13 6 7 1023.6 1023.6 0.0
 
Date/Time
CST
Temp
°C
App
Temp
°C
Dew
Point
Rel
Hum
%
Delta-T
°C
Wind Press
QNH
hPa
Press
MSL
hPa
Rain
since 9 am
mm
Dir
 
Spd
km/h
Gust
km/h
Spd
kts
Gust
kts
29/11:30pm 8.7 5.4 2.7 66 2.5 NW 9 11 5 6 1023.8 1023.8 0.0
29/11:00pm 9.8 7.1 3.5 65 2.7 W 7 9 4 5 1023.8 1023.8 0.0
29/10:30pm 10.7 8.2 4.8 67 2.6 WNW 7 7 4 4 1024.1 1024.1 0.0
29/10:00pm 12.1 9.6 5.0 62 3.3 NE 7 9 4 5 1024.1 1024.1 0.0
29/09:30pm 14.5 12.0 6.6 59 3.8 NNE 9 11 5 6 1024.2 1024.2 0.0
29/09:00pm 14.2 11.9 7.3 63 3.4 N 9 13 5 7 1024.2 1024.2 0.0
29/08:30pm 13.1 11.0 6.5 64 3.1 NW 7 9 4 5 1024.0 1024.0 0.0
29/08:00pm 12.6 9.6 6.0 64 3.1 WNW 11 15 6 8 1023.9 1023.9 0.0
29/07:30pm 14.8 12.8 7.1 60 3.8 ENE 7 9 4 5 1023.7 1023.7 0.0
29/07:00pm 16.8 14.5 7.4 54 4.7 E 9 11 5 6 1023.5 1023.5 0.0
29/06:30pm 18.0 16.2 8.0 52 5.1 E 7 11 4 6 1023.3 1023.3 0.0
29/06:00pm 19.5 17.1 6.9 44 6.3 E 9 13 5 7 1023.3 1023.3 0.0
29/05:30pm 21.3 18.0 6.4 38 7.5 ESE 13 17 7 9 1023.4 1023.4 0.0
29/05:00pm 22.2 19.0 6.8 37 7.9 E 13 19 7 10 1023.3 1023.3 0.0
29/04:30pm 23.2 19.5 6.5 34 8.5 E 15 20 8 11 1023.1 1023.1 0.0
29/04:00pm 23.5 19.3 5.9 32 8.9 E 17 24 9 13 1023.2 1023.2 0.0
29/03:30pm 23.9 20.0 7.1 34 8.7 E 17 24 9 13 1023.4 1023.4 0.0
29/03:00pm 24.3 19.7 5.6 30 9.5 E 19 28 10 15 1023.6 1023.6 0.0
29/02:30pm 24.5 19.9 6.3 31 9.3 E 20 28 11 15 1023.9 1023.9 0.0
29/02:00pm 24.6 19.9 5.9 30 9.6 E 20 26 11 14 1024.2 1024.2 0.0
29/01:30pm 24.3 19.7 5.6 30 9.4 E 19 22 10 12 1024.7 1024.7 0.0
29/01:00pm 24.0 19.4 5.4 30 9.4 E 19 26 10 14 1025.3 1025.3 0.0
29/12:30pm 22.1 18.2 7.1 38 7.7 E 17 22 9 12 1026.0 1026.0 0.0
29/12:00pm 21.4 17.8 6.9 39 7.4 ESE 15 19 8 10 1026.6 1026.6 0.0
29/11:30am 22.8 18.8 6.6 35 8.2 E 17 24 9 13 1027.0 1027.0 0.0
29/11:00am 22.4 19.4 7.8 39 7.6 ESE 13 17 7 9 1027.4 1027.4 0.0
29/10:30am 22.5 18.6 3.6 29 9.1 N 13 20 7 11 1027.7 1027.7 0.0
29/10:00am 21.3 18.6 5.6 36 7.8 NNW 9 15 5 8 1027.9 1027.9 0.0
29/09:30am 19.6 17.4 6.3 42 6.6 NNW 7 11 4 6 1028.0 1028.0 0.0
29/09:00am 17.2 14.8 7.0 51 5.0 NW 9 13 5 7 1028.0 1028.0 0.0
29/08:30am 14.3 12.4 7.4 63 3.4 NW 7 11 4 6 1028.0 1028.0 0.0
29/08:00am 10.1 7.8 5.7 74 2.0 NW 7 9 4 5 1027.8 1027.8 0.0
29/07:30am 6.8 4.3 3.8 81 1.3 NW 6 9 3 5 1027.6 1027.6 0.0
29/07:00am 5.0 1.8 2.9 86 0.9 NW 9 11 5 6 1027.6 1027.6 0.0
29/06:30am 5.3 1.7 3.0 85 0.9 NNW 11 11 6 6 1027.4 1027.4 0.0
29/06:00am 5.3 2.5 3.0 85 0.9 NW 7 9 4 5 1027.2 1027.2 0.0
29/05:30am 5.6 2.8 2.9 83 1.1 NNW 7 9 4 5 1026.9 1026.9 0.0
29/05:00am 6.7 4.1 4.2 84 1.1 NNW 7 11 4 6 1026.8 1026.8 0.0
29/04:30am 5.8 2.6 3.0 82 1.1 NNW 9 11 5 6 1026.7 1026.7 0.0
29/04:00am 6.3 3.6 3.5 82 1.2 NW 7 9 4 5 1026.6 1026.6 0.0
29/03:30am 6.2 3.1 3.4 82 1.2 NW 9 11 5 6 1026.4 1026.4 0.0
29/03:00am 6.4 3.3 3.4 81 1.3 NW 9 13 5 7 1026.4 1026.4 0.0
29/02:30am 6.3 3.1 2.8 78 1.4 NNW 9 11 5 6 1026.6 1026.6 0.0
29/02:00am 6.9 3.8 3.5 79 1.4 NNW 9 9 5 5 1026.8 1026.8 0.0
29/01:30am 7.8 5.3 3.7 75 1.7 NW 6 7 3 4 1026.9 1026.9 0.0
29/01:00am 7.5 4.4 3.7 77 1.6 WNW 9 9 5 5 1027.0 1027.0 0.0
29/12:30am 7.8 4.7 3.8 76 1.7 NW 9 11 5 6 1026.9 1026.9 0.0
29/12:00am 8.5 5.5 4.3 75 1.8 WNW 9 11 5 6 1027.0 1027.0 0.0
 
Date/Time
CST
Temp
°C
App
Temp
°C
Dew
Point
Rel
Hum
%
Delta-T
°C
Wind Press
QNH
hPa
Press
MSL
hPa
Rain
since 9 am
mm
Dir
 
Spd
km/h
Gust
km/h
Spd
kts
Gust
kts
28/11:30pm 9.0 6.1 4.6 74 1.9 WNW 9 13 5 7 1027.0 1027.0 0.0
28/11:00pm 8.6 5.6 4.2 74 1.9 W 9 15 5 8 1027.1 1027.1 0.0
28/10:30pm 9.2 6.3 4.8 74 1.9 W 9 11 5 6 1027.0 1027.0 0.0
28/10:00pm 9.3 8.1 4.7 73 2.0 CALM 0 9 0 5 1027.0 1027.0 0.0
28/09:30pm 10.1 9.1 5.7 74 2.0 CALM 0 6 0 3 1026.9 1026.9 0.0
28/09:00pm 11.5 9.4 5.8 68 2.6 NNE 6 7 3 4 1026.9 1026.9 0.0
28/08:30pm 13.5 11.9 8.1 70 2.7 NNE 6 9 3 5 1026.7 1026.7 0.0
28/08:00pm 14.5 12.1 8.7 68 2.9 E 11 13 6 7 1026.3 1026.3 0.0
28/07:30pm 15.4 13.5 8.9 65 3.3 E 9 11 5 6 1026.2 1026.2 0.0
28/07:00pm 16.0 14.0 8.7 62 3.7 ESE 9 13 5 7 1025.9 1025.9 0.0
28/06:30pm 17.2 13.8 7.8 54 4.7 ESE 15 19 8 10 1025.6 1025.6 0.0
28/06:00pm 18.8 15.6 6.9 46 5.9 ESE 13 17 7 9 1025.5 1025.5 0.0
28/05:30pm 21.0 17.7 6.5 39 7.3 ESE 13 17 7 9 1025.5 1025.5 0.0
28/05:00pm 22.5 18.4 6.3 35 8.2 ESE 17 20 9 11 1025.3 1025.3 0.0
28/04:30pm 23.0 19.4 6.7 35 8.3 ESE 15 20 8 11 1025.3 1025.3 0.0
28/04:00pm 23.1 18.6 6.0 33 8.7 ESE 19 22 10 12 1025.3 1025.3 0.0

Other Formats:

Comma delimited format used in spreadsheet applications
http://www.bom.gov.au/fwo/IDS60801/IDS60801.95664.axf

JavaScript Object Notation format (JSON) in row-major order
http://www.bom.gov.au/fwo/IDS60801/IDS60801.95664.json